Time;durP1;ratioP1;P1;durP2;ratioP2;P2;SDS_P1;SDS_P2;PMS_P1;PMS_P2;Temp;Humidity;BMP_temperature;BMP_pressure;BME280_temperature;BME280_humidity;BME280_pressure;Samples;Min_cycle;Max_cycle;Signal;HPM_P1;HPM_P2
2024/01/05 00:01:43;;;;;;;4.27;2.80;;;8.10;53.90;;;;;;20674;6807;304750;-78
2024/01/05 00:04:08;;;;;;;4.35;2.67;;;8.20;54.10;;;;;;20677;6807;307277;-78
2024/01/05 00:06:37;;;;;;;3.30;2.50;;;8.40;53.70;;;;;;20876;6807;117206;-78
2024/01/05 00:09:02;;;;;;;4.13;2.60;;;8.40;53.60;;;;;;20861;6807;117035;-78
2024/01/05 00:11:48;;;;;;;4.40;2.93;;;8.10;54.00;;;;;;20682;6596;317567;31
2024/01/05 00:14:23;;;;;;;2.63;2.17;;;8.20;54.00;;;;;;20938;6737;117729;-77
2024/01/05 00:16:59;;;;;;;4.50;2.53;;;8.10;54.00;;;;;;20931;6737;119017;-77
2024/01/05 00:19:35;;;;;;;5.53;2.53;;;7.70;55.30;;;;;;20912;6735;116675;-77
2024/01/05 00:22:11;;;;;;;4.20;2.65;;;7.70;54.70;;;;;;20650;6769;305134;-77
2024/01/05 00:24:47;;;;;;;5.17;2.73;;;8.20;54.20;;;;;;20655;6749;276652;-77
2024/01/05 00:27:23;;;;;;;4.90;2.77;;;8.20;54.20;;;;;;20678;6756;277117;-77
2024/01/05 00:29:58;;;;;;;3.37;2.17;;;8.50;53.40;;;;;;20863;6763;117137;-77
2024/01/05 00:32:34;;;;;;;6.37;2.60;;;8.40;53.40;;;;;;20660;6752;305736;-77
2024/01/05 00:35:10;;;;;;;3.80;2.72;;;8.60;53.20;;;;;;20668;6758;305789;-77
2024/01/05 00:37:46;;;;;;;2.23;2.03;;;8.60;53.10;;;;;;20967;6734;116838;-77
2024/01/05 00:40:21;;;;;;;5.90;2.17;;;8.50;53.20;;;;;;20858;6743;117821;-77
2024/01/05 00:42:57;;;;;;;3.70;2.60;;;8.20;53.70;;;;;;20725;6733;306387;-77
2024/01/05 00:45:32;;;;;;;4.83;2.40;;;8.30;54.00;;;;;;20941;6739;116838;-78
2024/01/05 00:48:09;;;;;;;3.55;2.42;;;8.40;53.90;;;;;;20763;6729;305340;-77
2024/01/05 00:50:44;;;;;;;5.83;2.53;;;8.30;53.80;;;;;;20601;6736;309381;-77
2024/01/05 00:53:20;;;;;;;3.50;2.37;;;8.60;53.10;;;;;;20858;6765;116889;-77
2024/01/05 00:55:56;;;;;;;5.25;2.47;;;8.60;53.20;;;;;;20723;6739;306537;-77
2024/01/05 00:58:31;;;;;;;1.93;1.80;;;8.60;53.20;;;;;;20934;6746;116838;-77
2024/01/05 01:01:08;;;;;;;6.72;2.37;;;8.50;53.30;;;;;;20581;6741;310716;-77
2024/01/05 01:03:42;;;;;;;4.33;1.90;;;8.60;53.30;;;;;;20952;6733;116557;-77
2024/01/05 01:06:18;;;;;;;2.37;1.90;;;8.50;53.30;;;;;;21009;6720;116768;-77
2024/01/05 01:08:54;;;;;;;3.83;2.20;;;8.40;53.90;;;;;;20767;6721;289303;-78
2024/01/05 01:11:30;;;;;;;5.57;2.40;;;8.40;53.90;;;;;;20841;6717;117130;-77
2024/01/05 01:14:05;;;;;;;4.10;2.00;;;8.40;53.80;;;;;;20987;6724;116698;-77
2024/01/05 01:16:41;;;;;;;4.60;2.90;;;8.20;54.20;;;;;;20761;6724;279268;-77
2024/01/05 01:19:17;;;;;;;4.35;3.12;;;8.30;54.10;;;;;;20774;6724;334840;-77
2024/01/05 01:21:52;;;;;;;4.87;3.28;;;8.60;53.50;;;;;;20580;6714;295376;-78
2024/01/05 01:24:28;;;;;;;5.30;2.93;;;8.80;52.90;;;;;;20705;6734;308367;-77
2024/01/05 01:27:03;;;;;;;5.27;2.80;;;9.00;52.50;;;;;;20989;6718;116584;-78
2024/01/05 01:29:39;;;;;;;4.07;3.10;;;8.90;52.70;;;;;;20754;6714;320817;-77
2024/01/05 01:32:15;;;;;;;4.00;2.30;;;8.90;52.80;;;;;;21014;6714;116685;-77
2024/01/05 01:34:51;;;;;;;5.93;2.90;;;8.70;52.90;;;;;;20790;6714;305081;-77
2024/01/05 01:37:26;;;;;;;2.83;2.63;;;8.70;52.90;;;;;;21023;6714;117157;-78
2024/01/05 01:40:04;;;;;;;2.47;2.23;;;8.70;53.10;;;;;;20903;6714;116641;-78
2024/01/05 01:42:58;;;;;;;3.63;2.53;;;8.40;53.50;;;;;;20755;6710;304618;-78
2024/01/05 01:45:34;;;;;;;2.97;2.10;;;8.50;53.50;;;;;;20999;6710;118646;-78
2024/01/05 01:48:13;;;;;;;2.20;1.80;;;8.50;53.50;;;;;;21018;6710;117165;-77
2024/01/05 01:50:45;;;;;;;2.07;1.70;;;8.30;53.80;;;;;;20894;6710;118673;-77
2024/01/05 01:53:21;;;;;;;4.03;2.50;;;8.10;54.10;;;;;;20998;6710;116422;-77
2024/01/05 01:55:56;;;;;;;5.33;2.07;;;7.90;54.40;;;;;;21033;6710;116772;-78
2024/01/05 01:58:32;;;;;;;3.50;2.33;;;7.80;54.60;;;;;;21004;6710;119249;-77
2024/01/05 02:01:08;;;;;;;4.90;2.27;;;7.70;54.90;;;;;;20830;6710;117186;-77
2024/01/05 02:03:43;;;;;;;4.28;2.53;;;7.70;55.10;;;;;;20808;6710;334351;-78
2024/01/05 02:06:19;;;;;;;2.37;2.10;;;7.90;54.90;;;;;;21033;6710;116667;-77
2024/01/05 02:08:54;;;;;;;6.40;2.90;;;8.00;54.50;;;;;;20765;6710;458630;-77
2024/01/05 02:11:30;;;;;;;3.87;2.55;;;8.20;54.00;;;;;;20628;6710;306030;-77
2024/01/05 02:14:08;;;;;;;5.47;3.00;;;8.50;53.30;;;;;;20785;6710;296926;-77
2024/01/05 02:16:41;;;;;;;3.50;2.53;;;8.80;52.50;;;;;;20988;6710;119765;-77
2024/01/05 02:19:16;;;;;;;4.33;2.70;;;8.70;52.50;;;;;;21014;6710;117007;-77
2024/01/05 02:21:53;;;;;;;4.07;2.13;;;8.30;53.90;;;;;;20824;6711;117035;-77
2024/01/05 02:24:28;;;;;;;4.37;2.37;;;8.20;53.40;;;;;;20833;6706;277796;-78
2024/01/05 02:27:04;;;;;;;3.27;2.20;;;8.40;53.30;;;;;;20768;6721;299972;-77
2024/01/05 02:29:40;;;;;;;4.47;2.40;;;9.00;51.70;;;;;;20767;6719;300892;-77
2024/01/05 02:32:16;;;;;;;4.73;2.07;;;9.00;51.70;;;;;;20947;6734;119846;-77
2024/01/05 02:34:52;;;;;;;4.70;2.42;;;8.90;52.20;;;;;;20723;6734;304453;-77
2024/01/05 02:37:29;;;;;;;3.30;2.17;;;8.90;51.50;;;;;;20994;6722;116709;-77
2024/01/05 02:40:04;;;;;;;2.43;1.80;;;8.80;51.70;;;;;;20984;6707;117149;-78
2024/01/05 02:42:39;;;;;;;3.67;1.93;;;8.60;52.20;;;;;;20806;6707;275627;-77
2024/01/05 02:45:20;;;;;;;4.60;2.20;;;8.70;51.90;;;;;;21022;6711;117060;-78
2024/01/05 02:47:52;;;;;;;2.93;2.33;;;8.60;51.80;;;;;;20781;6726;294258;-77
2024/01/05 02:50:27;;;;;;;3.90;2.13;;;8.80;52.00;;;;;;20928;6722;116675;-77
2024/01/05 02:53:04;;;;;;;2.03;1.77;;;8.70;52.00;;;;;;21022;6707;116602;-77
2024/01/05 02:55:40;;;;;;;3.53;2.20;;;8.50;52.40;;;;;;20827;6707;277481;-77
2024/01/05 02:58:15;;;;;;;4.85;2.30;;;8.60;52.20;;;;;;20817;6707;333926;-77
2024/01/05 03:00:51;;;;;;;5.97;2.58;;;8.80;51.60;;;;;;20702;6707;337976;-77
2024/01/05 03:03:26;;;;;;;3.57;2.40;;;9.10;51.30;;;;;;20991;6722;119247;-78
2024/01/05 03:06:03;;;;;;;4.12;2.42;;;8.90;51.40;;;;;;20839;6707;322574;-77
2024/01/05 03:08:38;;;;;;;3.10;2.37;;;8.90;51.50;;;;;;20968;6726;119532;-77
2024/01/05 03:11:14;;;;;;;2.83;2.20;;;8.80;51.70;;;;;;20797;6740;118205;-78
2024/01/05 03:13:50;;;;;;;5.60;2.42;;;8.40;52.00;;;;;;20738;6736;279559;-77
2024/01/05 03:16:25;;;;;;;3.00;2.35;;;8.50;52.10;;;;;;20743;6733;306182;-77
2024/01/05 03:19:02;;;;;;;3.43;2.13;;;8.70;51.70;;;;;;20857;6692;275668;-77
2024/01/05 03:21:38;;;;;;;3.55;2.25;;;8.90;51.20;;;;;;20704;6693;306906;-77
2024/01/05 03:24:15;;;;;;;4.30;2.27;;;9.10;50.90;;;;;;20859;6695;304998;-77
2024/01/05 03:26:49;;;;;;;3.77;1.93;;;9.20;50.60;;;;;;20838;6695;275754;-78
2024/01/05 03:29:24;;;;;;;3.83;2.10;;;9.30;50.50;;;;;;20864;6696;311835;-77
2024/01/05 03:32:00;;;;;;;4.13;1.97;;;9.40;50.20;;;;;;20676;6752;329458;-78
2024/01/05 03:34:37;;;;;;;3.28;2.00;;;9.40;50.10;;;;;;20853;6693;276087;-78
2024/01/05 03:37:13;;;;;;;2.47;1.73;;;9.50;49.90;;;;;;21082;6693;116815;-78
2024/01/05 03:39:48;;;;;;;3.55;2.30;;;9.20;50.20;;;;;;20801;6708;275907;-77
2024/01/05 03:42:24;;;;;;;3.97;2.37;;;9.00;50.50;;;;;;20813;6710;306891;-77
2024/01/05 03:44:59;;;;;;;2.77;2.13;;;9.20;50.60;;;;;;20813;6708;304127;-77
2024/01/05 03:47:35;;;;;;;2.33;1.70;;;9.30;50.60;;;;;;21038;6709;116712;-78
2024/01/05 03:50:11;;;;;;;5.53;2.30;;;9.00;50.70;;;;;;20790;6700;336969;-77
2024/01/05 03:52:47;;;;;;;4.97;1.90;;;9.00;51.00;;;;;;21034;6702;119193;-77
2024/01/05 03:55:26;;;;;;;4.57;2.03;;;8.70;51.10;;;;;;21016;6715;116776;-78
2024/01/05 03:57:58;;;;;;;3.58;2.47;;;8.40;51.70;;;;;;20903;6685;303803;-78
2024/01/05 04:00:35;;;;;;;1.87;1.77;;;8.50;51.90;;;;;;20974;6700;118742;-78
2024/01/05 04:03:10;;;;;;;3.67;2.33;;;8.40;51.80;;;;;;20869;6688;334367;-78
2024/01/05 04:05:45;;;;;;;3.07;1.83;;;8.50;51.90;;;;;;21085;6688;116697;-77
2024/01/05 04:08:21;;;;;;;4.20;1.73;;;8.40;51.80;;;;;;21096;6688;116520;-77
2024/01/05 04:10:56;;;;;;;3.28;2.00;;;8.20;52.30;;;;;;20717;6689;336353;-77
2024/01/05 04:13:34;;;;;;;5.10;2.40;;;8.30;52.40;;;;;;20872;6688;275844;-77
2024/01/05 04:16:08;;;;;;;4.03;2.30;;;8.50;51.80;;;;;;20878;6688;306202;-78
2024/01/05 04:18:43;;;;;;;4.53;2.30;;;8.80;51.40;;;;;;20864;6688;306268;-77
2024/01/05 04:21:19;;;;;;;70.23;26.90;;;8.90;51.10;;;;;;20916;6688;117247;-78
2024/01/05 04:23:55;;;;;;;35.47;15.43;;;8.80;51.40;;;;;;20862;6688;333827;-77
2024/01/05 04:26:32;;;;;;;7.17;3.80;;;8.70;51.30;;;;;;21056;6688;118121;-77
2024/01/05 04:29:09;;;;;;;3.20;2.10;;;8.60;51.40;;;;;;21062;6688;117060;-78
2024/01/05 04:31:44;;;;;;;3.57;2.37;;;8.30;51.90;;;;;;20662;6688;276811;-77
2024/01/05 04:34:20;;;;;;;4.50;2.53;;;8.40;52.40;;;;;;20861;6688;304614;-78
2024/01/05 04:36:56;;;;;;;3.70;2.10;;;8.60;52.00;;;;;;21059;6688;116530;-78
2024/01/05 04:39:31;;;;;;;3.58;2.35;;;8.50;51.90;;;;;;20865;6688;305646;-77
2024/01/05 04:42:07;;;;;;;2.77;1.90;;;8.50;51.70;;;;;;21091;6688;116590;-78
2024/01/05 04:44:42;;;;;;;4.43;1.97;;;8.40;51.80;;;;;;21072;6688;120050;-78
2024/01/05 04:47:18;;;;;;;3.75;1.85;;;8.10;52.30;;;;;;20870;6688;333074;-77
2024/01/05 04:49:54;;;;;;;3.70;2.60;;;8.20;52.30;;;;;;20839;6688;277170;-78
2024/01/05 04:52:29;;;;;;;4.35;2.53;;;8.50;52.00;;;;;;20878;6688;275302;-78
2024/01/05 04:55:05;;;;;;;6.17;3.50;;;8.70;51.80;;;;;;20867;6688;276313;-77
2024/01/05 04:57:41;;;;;;;5.40;3.00;;;8.90;51.40;;;;;;20979;6725;116715;-77
2024/01/05 05:00:17;;;;;;;2.73;2.30;;;8.70;51.40;;;;;;20916;6722;117184;-77
2024/01/05 05:02:52;;;;;;;7.23;2.37;;;8.30;51.90;;;;;;20954;6722;119259;-77
2024/01/05 05:05:28;;;;;;;3.77;2.10;;;8.00;52.40;;;;;;20779;6722;305981;-78
2024/01/05 05:08:03;;;;;;;5.17;1.50;;;8.10;52.60;;;;;;20991;6722;116745;-77
2024/01/05 05:10:39;;;;;;;5.50;1.90;;;8.00;52.40;;;;;;20681;6722;277414;-78
2024/01/05 05:13:14;;;;;;;2.77;1.83;;;8.10;52.50;;;;;;20776;6722;281455;-78
2024/01/05 05:15:50;;;;;;;2.97;1.90;;;8.40;52.10;;;;;;20781;6722;306326;-78
2024/01/05 05:18:26;;;;;;;2.95;1.98;;;8.60;51.60;;;;;;20772;6722;300241;-77
2024/01/05 05:21:01;;;;;;;2.50;1.40;;;8.70;51.20;;;;;;20858;6722;122446;-78
2024/01/05 05:23:37;;;;;;;4.37;2.17;;;8.50;51.30;;;;;;20988;6722;119298;-79
2024/01/05 05:26:12;;;;;;;3.00;2.17;;;8.20;51.90;;;;;;20770;6722;305291;-81
2024/01/05 05:28:48;;;;;;;3.50;1.57;;;8.20;52.00;;;;;;21031;6707;116628;-82
2024/01/05 05:31:25;;;;;;;1.80;1.60;;;8.10;52.00;;;;;;20631;6722;336356;-81
2024/01/05 05:34:02;;;;;;;2.47;1.67;;;8.10;51.80;;;;;;20773;6725;305555;-83
2024/01/05 05:36:38;;;;;;;3.60;1.43;;;8.40;52.00;;;;;;20969;6724;119810;-84
2024/01/05 05:39:17;;;;;;;2.70;1.67;;;8.20;51.20;;;;;;20827;6722;276486;-82
2024/01/05 05:41:50;;;;;;;1.50;1.33;;;8.30;51.20;;;;;;20821;6722;118819;-81
2024/01/05 05:44:25;;;;;;;2.53;1.40;;;8.10;51.20;;;;;;20982;6710;117073;-81
2024/01/05 05:47:02;;;;;;;3.33;1.48;;;7.90;51.70;;;;;;20794;6706;305266;-82
2024/01/05 05:49:44;;;;;;;2.95;1.55;;;8.20;51.30;;;;;;20744;6721;305476;-81
2024/01/05 05:52:16;;;;;;;2.67;1.73;;;8.20;51.30;;;;;;20978;6725;116740;-82
2024/01/05 05:54:49;;;;;;;3.07;1.70;;;8.20;51.40;;;;;;20749;6721;303335;-80
2024/01/05 05:57:27;;;;;;;1.67;1.47;;;8.10;51.20;;;;;;21023;6710;116712;-80
2024/01/05 06:00:04;;;;;;;2.17;1.40;;;8.10;51.20;;;;;;20722;6721;307547;-79
2024/01/05 06:02:38;;;;;;;2.20;1.50;;;8.20;50.90;;;;;;20762;6721;291295;-79
2024/01/05 06:05:14;;;;;;;1.70;1.27;;;8.50;50.90;;;;;;21013;6725;117752;-79
2024/01/05 06:07:51;;;;;;;2.00;1.53;;;8.40;51.00;;;;;;20995;6731;115880;-82
2024/01/05 06:10:26;;;;;;;1.83;1.70;;;8.10;51.50;;;;;;20710;6733;279122;-79
2024/01/05 06:13:02;;;;;;;1.60;1.50;;;8.20;52.20;;;;;;20804;6721;304595;-79
2024/01/05 06:15:41;;;;;;;2.80;2.30;;;8.50;52.20;;;;;;20790;6736;306334;-79
2024/01/05 06:18:13;;;;;;;2.87;2.08;;;8.70;51.90;;;;;;20822;6731;273570;-80
2024/01/05 06:20:53;;;;;;;1.53;1.40;;;8.90;51.70;;;;;;20896;6744;116331;-80
2024/01/05 06:23:28;;;;;;;2.73;2.53;;;8.70;51.70;;;;;;20826;6719;332988;-80
2024/01/05 06:26:04;;;;;;;2.87;2.07;;;8.70;52.00;;;;;;20994;6729;117201;-80
2024/01/05 06:28:38;;;;;;;1.70;1.60;;;8.50;52.10;;;;;;20881;6744;117569;-81
2024/01/05 06:31:13;;;;;;;2.50;2.10;;;8.20;52.50;;;;;;20552;6747;309276;-82
2024/01/05 06:33:50;;;;;;;2.33;2.00;;;8.40;51.70;;;;;;20692;6744;307846;-80
2024/01/05 06:36:26;;;;;;;2.47;2.00;;;8.40;51.70;;;;;;20737;6729;278463;-80
2024/01/05 06:39:02;;;;;;;3.27;2.20;;;8.80;51.10;;;;;;20673;6745;307130;-79
2024/01/05 06:41:40;;;;;;;1.63;1.53;;;8.80;51.10;;;;;;20787;6729;117657;-79
2024/01/05 06:44:13;;;;;;;1.90;1.53;;;8.60;51.30;;;;;;20894;6744;117063;-79
2024/01/05 06:46:50;;;;;;;2.67;2.00;;;8.20;51.80;;;;;;20685;6748;304754;-77
2024/01/05 06:49:25;;;;;;;2.90;1.92;;;8.30;52.10;;;;;;20695;6747;337302;-79
2024/01/05 06:52:00;;;;;;;4.00;2.30;;;8.50;51.70;;;;;;20454;6804;280915;-79
2024/01/05 06:54:36;;;;;;;2.30;2.07;;;8.70;51.50;;;;;;20648;6751;281800;-79
2024/01/05 06:57:11;;;;;;;3.10;2.43;;;8.90;51.10;;;;;;20879;6729;67417;-79
2024/01/05 06:59:47;;;;;;;3.13;2.07;;;8.70;51.10;;;;;;20594;6743;279752;-80
2024/01/05 07:02:22;;;;;;;3.57;2.03;;;8.70;51.60;;;;;;20682;6735;308157;-80
2024/01/05 07:05:05;;;;;;;3.13;1.53;;;8.80;51.40;;;;;;20945;6735;67235;-80
2024/01/05 07:07:35;;;;;;;2.93;1.90;;;8.70;51.50;;;;;;20937;6735;67868;-80
2024/01/05 07:10:11;;;;;;;2.53;1.50;;;8.40;52.00;;;;;;20911;6735;69399;-80
2024/01/05 07:12:46;;;;;;;3.22;2.03;;;8.10;52.50;;;;;;20789;6717;336698;-80
2024/01/05 07:15:25;;;;;;;3.23;1.80;;;8.20;52.70;;;;;;20945;6736;67417;-80
2024/01/05 07:18:00;;;;;;;2.63;2.07;;;8.10;52.50;;;;;;20796;6717;283377;-80
2024/01/05 07:20:36;;;;;;;2.50;2.30;;;8.20;53.00;;;;;;20704;6717;307635;-79
2024/01/05 07:23:12;;;;;;;2.30;2.10;;;8.50;52.30;;;;;;20972;6726;66998;-80
2024/01/05 07:25:47;;;;;;;3.90;2.33;;;8.40;51.60;;;;;;20782;6719;303956;-78
2024/01/05 07:28:23;;;;;;;3.30;2.00;;;8.40;52.20;;;;;;20779;6719;304694;-79
2024/01/05 07:30:59;;;;;;;3.83;1.73;;;8.60;51.90;;;;;;20653;6719;278151;-79
2024/01/05 07:33:34;;;;;;;4.93;2.20;;;8.80;51.40;;;;;;20767;6724;278701;-77
2024/01/05 07:36:10;;;;;;;3.60;1.80;;;8.90;51.00;;;;;;21018;6714;67509;-79
2024/01/05 07:38:49;;;;;;;6.78;6.10;;;8.70;51.20;;;;;;20823;6709;306243;-81
2024/01/05 07:41:25;;;;;;;8.85;8.07;;;8.70;51.30;;;;;;20655;6706;309046;-80
2024/01/05 07:44:11;;;;;;;;;;;;;;;;;;;;;
2024/01/05 07:49:56;;;;;;;11.97;8.47;;;8.40;51.70;;;;;;21020;6702;67631;-81
2024/01/05 07:52:35;;;;;;;8.20;7.28;;;8.10;52.30;;;;;;20871;6691;332999;-81
2024/01/05 07:55:11;;;;;;;5.53;4.00;;;8.20;52.30;;;;;;21090;6691;72901;-81
2024/01/05 07:57:43;;;;;;;8.20;6.47;;;8.20;52.30;;;;;;20847;6691;276768;-81
2024/01/05 08:00:19;;;;;;;6.12;5.00;;;8.30;53.00;;;;;;20798;6691;336860;-81
2024/01/05 08:02:54;;;;;;;4.60;4.20;;;8.60;52.40;;;;;;20994;6721;67568;-81
2024/01/05 08:05:30;;;;;;;5.43;4.50;;;8.50;52.10;;;;;;20760;6721;334916;-81
2024/01/05 08:08:06;;;;;;;5.97;3.60;;;8.60;52.20;;;;;;21031;6721;68356;-81
2024/01/05 08:10:47;;;;;;;4.05;3.65;;;8.60;52.20;;;;;;20698;6720;308274;-89
2024/01/05 08:13:18;;;;;;;3.23;3.00;;;8.60;52.20;;;;;;20954;6737;72441;-86
2024/01/05 08:15:41;;;;;;;4.90;3.90;;;8.60;52.20;;;;;;20797;6765;310586;-79
2024/01/05 08:18:09;;;;;;;4.60;4.10;;;8.70;52.50;;;;;;20767;6780;304471;-79
2024/01/05 08:20:32;;;;;;;5.50;3.97;;;8.90;52.50;;;;;;20935;6765;67964;-78
2024/01/05 08:22:58;;;;;;;7.50;6.23;;;8.90;53.00;;;;;;20552;6851;307684;-79
2024/01/05 08:25:24;;;;;;;21.70;13.13;;;9.10;51.00;;;;;;20600;6837;309149;-80
2024/01/05 08:27:50;;;;;;;29.95;19.02;;;9.10;51.00;;;;;;20564;6851;278672;-80
2024/01/05 08:30:15;;;;;;;24.67;15.00;;;9.40;50.50;;;;;;20600;6837;309630;-80
2024/01/05 08:32:41;;;;;;;15.43;11.20;;;9.50;49.90;;;;;;20553;6851;334833;-80
2024/01/05 08:35:07;;;;;;;18.20;11.83;;;9.70;50.30;;;;;;20611;6837;280475;-78
2024/01/05 08:37:32;;;;;;;6.53;5.33;;;9.80;50.00;;;;;;20519;6837;307989;-80
2024/01/05 08:39:58;;;;;;;5.70;4.32;;;9.90;49.70;;;;;;20531;6851;69412;-79
2024/01/05 08:42:23;;;;;;;7.53;5.53;;;9.70;50.00;;;;;;20572;6837;323141;-78
2024/01/05 08:44:50;;;;;;;5.33;4.63;;;9.60;50.40;;;;;;20574;6837;279962;-79
2024/01/05 08:47:14;;;;;;;4.50;3.12;;;9.70;50.60;;;;;;20743;6852;117703;-80
2024/01/05 08:49:40;;;;;;;3.43;3.00;;;9.50;50.40;;;;;;20516;6837;334318;-83
2024/01/05 08:52:06;;;;;;;2.90;2.60;;;9.40;51.20;;;;;;20429;6881;299980;-78
2024/01/05 08:54:32;;;;;;;4.57;2.43;;;9.60;50.70;;;;;;20529;6852;307997;-77
2024/01/05 08:56:58;;;;;;;3.50;2.60;;;9.70;50.60;;;;;;20513;6852;278998;-79
2024/01/05 08:59:24;;;;;;;4.43;2.30;;;9.70;50.60;;;;;;20738;6841;117464;-80
2024/01/05 09:01:49;;;;;;;2.27;2.00;;;9.40;50.70;;;;;;20687;6855;119062;-80
2024/01/05 09:04:16;;;;;;;4.00;1.85;;;8.70;52.10;;;;;;20695;6856;117429;-77
2024/01/05 09:06:42;;;;;;;2.03;1.80;;;8.70;52.10;;;;;;20698;6856;118052;-77
2024/01/05 09:09:10;;;;;;;3.20;2.10;;;8.60;53.00;;;;;;20520;6858;279861;-77
2024/01/05 09:11:34;;;;;;;2.13;1.93;;;8.90;52.80;;;;;;20438;6871;281718;-77
2024/01/05 09:14:00;;;;;;;1.97;1.80;;;9.20;51.20;;;;;;20358;6877;281331;-77
2024/01/05 09:16:26;;;;;;;3.00;1.95;;;9.20;51.10;;;;;;20453;6862;279307;-80
2024/01/05 09:18:52;;;;;;;2.53;1.90;;;9.40;50.70;;;;;;20651;6871;146783;-79
2024/01/05 09:21:17;;;;;;;3.83;1.92;;;9.30;50.80;;;;;;20645;6883;117308;-79
2024/01/05 09:23:43;;;;;;;2.37;2.10;;;9.10;51.30;;;;;;20491;6856;338503;-78
2024/01/05 09:26:16;;;;;;;4.32;2.12;;;9.40;50.80;;;;;;20449;6876;309127;-78
2024/01/05 09:28:42;;;;;;;2.43;1.93;;;9.40;50.70;;;;;;20707;6861;115919;-78
2024/01/05 09:31:10;;;;;;;2.73;1.80;;;9.40;50.80;;;;;;20733;6861;68366;-83
2024/01/05 09:33:35;;;;;;;4.13;2.23;;;9.20;51.20;;;;;;20512;6861;324377;-80
2024/01/05 09:36:01;;;;;;;3.60;2.28;;;9.20;51.10;;;;;;20520;6861;310026;-80
2024/01/05 09:38:26;;;;;;;4.30;2.40;;;9.50;50.90;;;;;;20706;6862;67488;-79
2024/01/05 09:40:54;;;;;;;2.27;2.10;;;9.40;50.70;;;;;;20726;6862;68451;-80
2024/01/05 09:43:18;;;;;;;2.90;1.77;;;9.20;50.60;;;;;;20726;6862;68485;-80
2024/01/05 09:45:43;;;;;;;3.83;2.62;;;9.00;51.60;;;;;;20504;6862;339869;-79
2024/01/05 09:48:09;;;;;;;4.03;2.58;;;9.10;51.90;;;;;;20517;6862;337860;-78
2024/01/05 09:50:36;;;;;;;2.77;2.30;;;9.40;51.40;;;;;;20715;6862;73136;-77
2024/01/05 09:53:01;;;;;;;4.63;3.00;;;9.40;51.20;;;;;;20683;6862;68383;-83
2024/01/05 09:55:27;;;;;;;2.85;2.65;;;9.20;51.50;;;;;;20524;6862;308623;-78
2024/01/05 09:57:52;;;;;;;3.53;3.10;;;9.30;51.60;;;;;;20502;6862;308133;-77
2024/01/05 10:00:20;;;;;;;5.03;2.80;;;9.50;51.10;;;;;;20497;6862;342404;-78
2024/01/05 10:02:51;;;;;;;2.90;2.47;;;9.70;50.70;;;;;;20682;6862;91788;-79
2024/01/05 10:05:17;;;;;;;2.60;2.20;;;9.60;50.80;;;;;;20684;6862;67989;-80
2024/01/05 10:07:43;;;;;;;3.80;2.80;;;9.40;51.40;;;;;;20515;6862;308915;-78
2024/01/05 10:10:11;;;;;;;3.80;2.57;;;9.40;51.30;;;;;;20724;6862;67504;-78
2024/01/05 10:12:34;;;;;;;3.33;2.80;;;9.40;51.30;;;;;;20495;6862;308195;-77
2024/01/05 10:15:13;;;;;;;3.87;2.77;;;9.50;51.20;;;;;;20727;6862;67911;-77
2024/01/05 10:17:28;;;;;;;3.33;2.87;;;9.50;51.30;;;;;;20441;6862;312217;-78
2024/01/05 10:19:54;;;;;;;2.63;2.27;;;9.60;51.50;;;;;;20740;6862;68829;-77
2024/01/05 10:22:20;;;;;;;4.37;2.57;;;9.60;51.60;;;;;;20674;6862;67959;-76
2024/01/05 10:24:45;;;;;;;3.92;2.83;;;9.40;51.90;;;;;;20534;6862;307416;-76
2024/01/05 10:27:11;;;;;;;2.97;2.67;;;9.50;52.00;;;;;;20748;6862;68686;-77
2024/01/05 10:29:37;;;;;;;3.10;2.10;;;9.60;52.00;;;;;;20735;6860;67961;-77
2024/01/05 10:32:11;;;;;;;3.90;2.50;;;9.40;52.20;;;;;;20514;6861;324711;-79
2024/01/05 10:34:41;;;;;;;2.70;2.50;;;9.90;51.70;;;;;;20529;6861;308352;-79
2024/01/05 10:37:06;;;;;;;5.47;2.10;;;9.90;51.70;;;;;;20719;6861;69547;-78
2024/01/05 10:39:32;;;;;;;3.17;2.10;;;9.90;51.60;;;;;;20734;6861;68595;-79
2024/01/05 10:42:18;;;;;;;2.50;2.30;;;9.80;52.00;;;;;;20741;6861;67523;-78
2024/01/05 10:44:43;;;;;;;4.00;2.40;;;9.70;52.40;;;;;;20526;6861;308700;-77
2024/01/05 10:47:08;;;;;;;2.20;2.10;;;9.90;52.10;;;;;;20727;6861;68335;-79
2024/01/05 10:49:34;;;;;;;3.83;2.70;;;9.90;51.90;;;;;;20737;6861;68728;-79
2024/01/05 10:52:00;;;;;;;5.70;4.10;;;10.00;51.60;;;;;;20522;6862;307723;-79
2024/01/05 10:54:26;;;;;;;8.27;3.60;;;10.00;51.60;;;;;;20739;6862;70139;-78
2024/01/05 10:56:53;;;;;;;3.50;3.20;;;10.00;51.40;;;;;;20742;6862;68792;-79
2024/01/05 10:59:17;;;;;;;3.73;3.27;;;9.90;52.60;;;;;;20733;6862;67936;-79
2024/01/05 11:01:42;;;;;;;5.68;3.70;;;9.80;52.90;;;;;;20531;6862;339988;-78
2024/01/05 11:04:08;;;;;;;6.93;4.97;;;9.90;52.30;;;;;;20737;6862;67882;-79
2024/01/05 11:06:34;;;;;;;8.57;7.10;;;10.10;51.30;;;;;;20524;6862;340748;-77
2024/01/05 11:09:13;;;;;;;11.90;9.70;;;10.10;51.20;;;;;;20531;6862;321868;-82
2024/01/05 11:11:48;;;;;;;10.30;9.00;;;10.40;50.90;;;;;;19946;6862;298955;-80
2024/01/05 11:14:34;;;;;;;4.17;3.77;;;10.60;50.40;;;;;;20715;6862;68261;-79
2024/01/05 11:17:19;;;;;;;7.57;5.50;;;10.60;50.40;;;;;;20264;6862;70845;-79
2024/01/05 11:19:50;;;;;;;4.23;3.53;;;10.10;51.20;;;;;;20743;6862;67932;-80
2024/01/05 11:22:15;;;;;;;5.45;3.30;;;10.10;51.20;;;;;;20517;6862;308090;-82
2024/01/05 11:24:42;;;;;;;4.13;3.73;;;10.20;51.00;;;;;;20485;6862;311571;-85
2024/01/05 11:27:33;;;;;;;4.40;4.00;;;10.70;50.20;;;;;;20526;6862;309538;-79
2024/01/05 11:29:57;;;;;;;4.07;3.67;;;10.70;50.20;;;;;;19714;7199;70528;-79
2024/01/05 11:32:47;;;;;;;4.40;3.23;;;10.30;50.60;;;;;;20269;6862;67736;-77
2024/01/05 11:35:16;;;;;;;4.47;4.07;;;10.30;50.60;;;;;;20530;6862;307260;-77
2024/01/05 11:37:42;;;;;;;4.67;3.70;;;10.60;50.70;;;;;;20532;6862;308625;-77
2024/01/05 11:40:08;;;;;;;4.65;3.90;;;10.60;50.60;;;;;;20522;6862;308077;-78
2024/01/05 11:42:34;;;;;;;32.03;20.23;;;11.00;50.30;;;;;;20455;6860;301350;-77
2024/01/05 11:45:03;;;;;;;39.00;25.30;;;11.00;50.30;;;;;;20526;6861;308147;-77
2024/01/05 11:47:46;;;;;;;10.07;8.50;;;11.20;50.00;;;;;;20737;6861;67501;-77
2024/01/05 11:50:22;;;;;;;6.45;5.78;;;11.00;50.00;;;;;;20522;6861;338577;-78
2024/01/05 11:52:48;;;;;;;5.53;3.58;;;11.00;50.30;;;;;;20519;6861;329952;-79
2024/01/05 11:55:13;;;;;;;4.73;3.30;;;11.20;49.70;;;;;;20524;6861;337690;-79
2024/01/05 11:57:39;;;;;;;4.65;4.25;;;11.30;49.50;;;;;;20532;6861;309999;-79
2024/01/05 12:00:06;;;;;;;3.70;3.40;;;11.20;49.40;;;;;;20732;6861;71403;-78
2024/01/05 12:02:31;;;;;;;11.98;10.77;;;11.20;49.40;;;;;;20506;6862;279074;-77
2024/01/05 12:04:58;;;;;;;12.57;9.47;;;11.20;49.60;;;;;;20731;6862;68146;-78
2024/01/05 12:07:25;;;;;;;5.80;5.20;;;11.00;49.80;;;;;;20745;6862;68545;-78
2024/01/05 12:09:52;;;;;;;5.10;4.70;;;10.70;50.20;;;;;;20514;6862;309055;-77
2024/01/05 12:12:18;;;;;;;4.63;4.23;;;10.70;50.50;;;;;;20687;6862;67416;-77
2024/01/05 12:14:44;;;;;;;4.20;3.80;;;10.70;50.60;;;;;;20711;6862;68055;-77
2024/01/05 12:17:12;;;;;;;4.47;3.63;;;10.50;50.90;;;;;;20707;6862;72050;-77
2024/01/05 12:19:39;;;;;;;4.53;4.12;;;10.30;51.20;;;;;;20446;6862;338374;-78
2024/01/05 12:22:04;;;;;;;4.37;3.97;;;10.40;51.30;;;;;;20492;6862;308633;-80
2024/01/05 12:24:29;;;;;;;5.23;3.90;;;10.70;50.70;;;;;;20696;6862;117291;-76
2024/01/05 12:26:55;;;;;;;5.57;4.80;;;10.70;50.60;;;;;;20487;6862;282821;-81
2024/01/05 12:29:21;;;;;;;6.33;4.77;;;10.80;50.60;;;;;;20707;6862;117994;-79
2024/01/05 12:31:46;;;;;;;5.70;5.20;;;10.70;50.60;;;;;;20703;6862;118471;-78
2024/01/05 12:34:13;;;;;;;7.80;7.00;;;10.50;50.90;;;;;;20725;6862;117368;-78
2024/01/05 12:36:38;;;;;;;4.75;4.35;;;10.40;51.80;;;;;;20497;6862;308184;-76
2024/01/05 12:39:13;;;;;;;4.68;4.28;;;10.40;51.80;;;;;;20513;6862;309021;-77
2024/01/05 12:41:41;;;;;;;7.20;6.00;;;10.70;51.70;;;;;;20506;6862;278450;-77
2024/01/05 12:44:07;;;;;;;8.00;4.70;;;11.00;51.60;;;;;;20722;6862;117325;-78
2024/01/05 12:46:30;;;;;;;6.57;5.73;;;10.90;51.40;;;;;;20502;6862;307277;-77
2024/01/05 12:48:55;;;;;;;6.40;4.57;;;10.90;52.10;;;;;;20490;6862;309580;-77
2024/01/05 12:51:22;;;;;;;4.47;4.03;;;11.10;52.40;;;;;;20725;6862;118464;-80
2024/01/05 12:53:57;;;;;;;5.90;3.40;;;11.00;52.10;;;;;;20724;6860;116949;-79
2024/01/05 12:56:24;;;;;;;4.82;3.87;;;10.80;53.00;;;;;;20517;6861;278544;-81
2024/01/05 12:58:49;;;;;;;5.80;3.53;;;10.90;53.80;;;;;;20666;6861;121113;-79
2024/01/05 13:01:18;;;;;;;4.97;4.47;;;10.90;53.60;;;;;;20475;6861;282451;-78
2024/01/05 13:03:49;;;;;;;4.93;4.43;;;11.10;54.00;;;;;;20628;6861;67446;-79
2024/01/05 13:06:15;;;;;;;5.83;4.40;;;11.10;53.70;;;;;;20654;6861;71100;-78
2024/01/05 13:08:40;;;;;;;5.68;5.03;;;11.00;53.90;;;;;;20475;6861;278945;-78
2024/01/05 13:11:06;;;;;;;30.17;14.73;;;11.10;53.70;;;;;;20692;6861;117494;-79
2024/01/05 13:13:31;;;;;;;138.30;58.00;;;11.10;53.40;;;;;;20710;6862;118225;-78
2024/01/05 13:15:59;;;;;;;66.40;35.00;;;11.00;53.50;;;;;;20487;6862;339605;-78